createdAt,value
2023-04-17T00:00:38.123Z,30.90
2023-04-17T00:03:04.811Z,29.17
2023-04-17T00:05:31.942Z,28.67
2023-04-17T00:07:59.996Z,30.73
2023-04-17T00:10:26.646Z,31.63
2023-04-17T00:12:53.225Z,29.87
2023-04-17T00:15:19.711Z,31.77
2023-04-17T00:17:46.228Z,29.97
2023-04-17T00:20:13.383Z,28.50
2023-04-17T00:22:39.878Z,30.70
2023-04-17T00:25:06.983Z,32.13
2023-04-17T00:27:33.620Z,32.73
2023-04-17T00:30:00.242Z,34.80
2023-04-17T00:32:26.775Z,33.37
2023-04-17T00:34:55.593Z,33.10
2023-04-17T00:37:22.475Z,27.17
2023-04-17T00:39:48.960Z,31.30
2023-04-17T00:42:15.432Z,27.17
2023-04-17T00:44:41.910Z,29.27
2023-04-17T00:47:08.614Z,31.67
2023-04-17T00:49:35.373Z,30.20
2023-04-17T00:52:02.668Z,29.27
2023-04-17T00:54:29.436Z,35.13
2023-04-17T00:56:56.693Z,29.50
2023-04-17T00:59:24.033Z,34.10
2023-04-17T01:01:50.651Z,30.53
2023-04-17T01:04:17.216Z,31.83
2023-04-17T01:06:43.742Z,32.97
2023-04-17T01:09:11.452Z,35.03
2023-04-17T01:11:39.231Z,30.77
2023-04-17T01:14:05.816Z,33.20
2023-04-17T01:16:32.349Z,34.60
2023-04-17T01:18:59.522Z,32.83
2023-04-17T01:21:26.153Z,34.97
2023-04-17T01:23:53.335Z,39.93
2023-04-17T01:26:23.607Z,38.40
2023-04-17T01:28:59.779Z,38.00
2023-04-17T01:31:27.832Z,36.47
2023-04-17T01:33:54.431Z,37.47
2023-04-17T01:36:20.870Z,36.87
2023-04-17T01:38:47.435Z,38.00
2023-04-17T01:41:13.968Z,37.43
2023-04-17T01:43:42.871Z,33.20
2023-04-17T01:46:10.108Z,33.03
2023-04-17T01:48:36.968Z,36.53
2023-04-17T01:51:04.137Z,33.63
2023-04-17T01:53:31.356Z,32.60
2023-04-17T01:55:58.102Z,36.40
2023-04-17T01:58:24.617Z,34.03
2023-04-17T02:00:51.979Z,31.33
2023-04-17T02:03:19.319Z,32.23
2023-04-17T02:05:48.417Z,31.30
2023-04-17T02:08:15.132Z,34.53
2023-04-17T02:10:42.287Z,36.57
2023-04-17T02:13:10.087Z,32.43
2023-04-17T02:15:39.952Z,33.43
2023-04-17T02:18:06.831Z,33.57
2023-04-17T02:20:34.050Z,32.77
2023-04-17T02:23:01.263Z,35.37
2023-04-17T02:25:28.333Z,33.77
2023-04-17T02:27:56.223Z,33.57
2023-04-17T02:30:26.688Z,33.57
2023-04-17T02:32:54.076Z,32.73
2023-04-17T02:35:22.476Z,36.10
2023-04-17T02:37:49.054Z,31.87
2023-04-17T02:40:16.245Z,29.20
2023-04-17T02:42:42.747Z,29.83
2023-04-17T02:45:11.118Z,30.97
2023-04-17T02:47:38.079Z,35.90
2023-04-17T02:50:05.706Z,35.07
2023-04-17T02:52:33.980Z,31.80
2023-04-17T02:55:00.577Z,35.47
2023-04-17T02:57:27.091Z,34.80
2023-04-17T02:59:53.736Z,35.57
2023-04-17T03:02:23.363Z,40.23
2023-04-17T03:04:50.627Z,39.40
2023-04-17T03:07:20.682Z,36.30
2023-04-17T03:09:47.631Z,38.40
2023-04-17T03:12:14.792Z,37.53
2023-04-17T03:14:41.929Z,35.43
2023-04-17T03:17:10.102Z,34.77
2023-04-17T03:19:36.584Z,41.00
2023-04-17T03:22:03.328Z,33.13
2023-04-17T03:24:30.064Z,35.10
2023-04-17T03:26:56.579Z,38.50
2023-04-17T03:29:23.459Z,36.47
2023-04-17T03:31:50.014Z,36.43
2023-04-17T03:34:17.751Z,33.97
2023-04-17T03:36:44.504Z,37.20
2023-04-17T03:39:11.564Z,38.10
2023-04-17T03:41:38.731Z,31.83
2023-04-17T03:44:05.683Z,32.53
2023-04-17T03:46:32.266Z,34.07
2023-04-17T03:48:58.769Z,35.80
2023-04-17T03:51:27.294Z,36.07
2023-04-17T03:53:53.799Z,30.87
2023-04-17T03:56:20.552Z,35.20
2023-04-17T03:58:47.113Z,34.13
2023-04-17T04:01:14.695Z,33.70
2023-04-17T04:03:41.494Z,34.67
2023-04-17T04:06:08.271Z,34.57
2023-04-17T04:08:34.762Z,34.87
2023-04-17T04:11:02.179Z,36.30
2023-04-17T04:13:28.728Z,28.73
2023-04-17T04:15:55.234Z,33.03
2023-04-17T04:18:21.749Z,32.30
2023-04-17T04:20:48.367Z,32.23
2023-04-17T04:23:16.661Z,34.77
2023-04-17T04:25:43.530Z,32.20
2023-04-17T04:28:11.188Z,29.77
2023-04-17T04:30:38.728Z,32.07
2023-04-17T04:33:06.184Z,33.33
2023-04-17T04:35:32.831Z,32.17
2023-04-17T04:38:02.946Z,30.13
2023-04-17T04:40:30.798Z,31.13
2023-04-17T04:42:57.323Z,33.33
2023-04-17T04:45:23.987Z,31.43
2023-04-17T04:47:50.707Z,29.47
2023-04-17T04:50:17.656Z,31.27
2023-04-17T04:52:44.253Z,30.20
2023-04-17T04:55:12.699Z,27.23
2023-04-17T04:57:39.713Z,29.67
2023-04-17T05:00:08.044Z,30.20
2023-04-17T05:02:34.810Z,34.47
2023-04-17T05:05:01.800Z,30.87
2023-04-17T05:07:28.632Z,29.80
2023-04-17T05:09:55.559Z,31.60
2023-04-17T05:12:22.125Z,29.53
2023-04-17T05:14:49.217Z,31.90
2023-04-17T05:17:15.864Z,27.23
2023-04-17T05:19:42.525Z,29.30
2023-04-17T05:22:10.293Z,27.50
2023-04-17T05:24:36.872Z,37.77
2023-04-17T05:27:04.234Z,33.57
2023-04-17T05:29:32.718Z,31.63
2023-04-17T05:31:59.298Z,29.83
2023-04-17T05:34:26.322Z,32.47
2023-04-17T05:36:52.942Z,30.00
2023-04-17T05:39:19.516Z,29.73
2023-04-17T05:41:46.145Z,31.23
2023-04-17T05:44:12.838Z,28.60
2023-04-17T05:46:39.307Z,29.80
2023-04-17T05:49:05.774Z,30.40
2023-04-17T05:51:32.300Z,34.33
2023-04-17T05:53:58.907Z,28.00
2023-04-17T05:56:25.665Z,29.50
2023-04-17T05:58:52.154Z,28.47
2023-04-17T06:01:22.380Z,31.17
2023-04-17T06:03:49.258Z,28.80
2023-04-17T06:06:16.658Z,31.63
2023-04-17T06:08:43.139Z,29.90
2023-04-17T06:11:10.349Z,27.50
2023-04-17T06:13:37.007Z,24.80
2023-04-17T06:16:03.601Z,29.07
2023-04-17T06:18:30.239Z,31.50
2023-04-17T06:20:56.857Z,34.13
2023-04-17T06:23:23.351Z,29.53
2023-04-17T06:25:50.303Z,35.57
2023-04-17T06:28:17.112Z,26.43
2023-04-17T06:30:43.664Z,32.13
2023-04-17T06:33:11.260Z,28.93
2023-04-17T06:35:38.012Z,25.63
2023-04-17T06:38:04.577Z,34.37
2023-04-17T06:40:31.354Z,32.87
2023-04-17T06:42:57.958Z,33.23
2023-04-17T06:45:24.762Z,34.10
2023-04-17T06:47:51.398Z,39.03
2023-04-17T06:50:18.277Z,35.23
2023-04-17T06:52:44.965Z,34.80
2023-04-17T06:55:11.717Z,45.03
2023-04-17T06:57:39.260Z,47.07
2023-04-17T07:00:07.796Z,41.87
2023-04-17T07:02:34.581Z,38.00
2023-04-17T07:05:01.511Z,38.23
2023-04-17T07:07:30.636Z,36.40
2023-04-17T07:09:57.608Z,38.13
2023-04-17T07:12:24.114Z,34.13
2023-04-17T07:14:51.164Z,42.43
2023-04-17T07:17:18.163Z,38.67
2023-04-17T07:19:44.794Z,28.63
2023-04-17T07:22:11.952Z,34.00
2023-04-17T07:24:38.614Z,28.87
2023-04-17T07:27:06.649Z,27.20
2023-04-17T07:29:33.362Z,34.37
2023-04-17T07:31:59.922Z,37.90
2023-04-17T07:34:27.415Z,25.13
2023-04-17T07:36:54.011Z,32.80
2023-04-17T07:39:21.053Z,30.87
2023-04-17T07:41:48.617Z,25.60
2023-04-17T07:44:15.347Z,29.77
2023-04-17T07:46:42.142Z,28.20
2023-04-17T07:49:10.752Z,31.00
2023-04-17T07:51:41.115Z,37.53
2023-04-17T07:54:07.800Z,30.37
2023-04-17T07:56:34.688Z,28.93
2023-04-17T07:59:01.325Z,27.50
2023-04-17T08:01:28.118Z,31.07
2023-04-17T08:03:55.734Z,26.57
2023-04-17T08:06:22.572Z,28.33
2023-04-17T08:08:49.279Z,25.13
2023-04-17T08:11:15.909Z,25.87
2023-04-17T08:13:42.613Z,28.97
2023-04-17T08:16:11.076Z,28.13
2023-04-17T08:18:40.023Z,26.17
2023-04-17T08:21:11.332Z,27.47
2023-04-17T08:23:37.996Z,24.00
2023-04-17T08:26:04.973Z,25.80
2023-04-17T08:28:31.818Z,23.33
2023-04-17T08:30:58.635Z,24.13
2023-04-17T08:33:25.373Z,22.63
2023-04-17T08:35:52.100Z,30.40
2023-04-17T08:38:18.753Z,33.97
2023-04-17T08:40:51.958Z,24.57
2023-04-17T08:43:21.125Z,26.17
2023-04-17T08:45:53.900Z,26.93
2023-04-17T08:48:22.039Z,28.00
2023-04-17T08:50:50.204Z,30.50
2023-04-17T08:53:17.657Z,28.40
2023-04-17T08:55:45.450Z,23.67
2023-04-17T08:58:12.855Z,26.40
2023-04-17T09:00:41.080Z,26.57
2023-04-17T09:03:11.479Z,19.10
2023-04-17T09:05:42.107Z,26.40
2023-04-17T09:08:16.578Z,21.57
2023-04-17T09:10:48.774Z,26.90
2023-04-17T09:13:18.115Z,29.77
2023-04-17T09:15:46.233Z,32.67
2023-04-17T09:18:31.192Z,26.60
2023-04-17T09:21:00.008Z,21.57
2023-04-17T09:23:27.795Z,21.47
2023-04-17T09:26:14.347Z,25.57
2023-04-17T09:28:41.671Z,21.87
2023-04-17T09:31:20.098Z,20.83
2023-04-17T09:34:07.450Z,23.90
2023-04-17T09:36:36.839Z,27.93
2023-04-17T09:39:05.352Z,26.87
2023-04-17T09:41:39.476Z,23.33
2023-04-17T09:44:06.227Z,33.10
2023-04-17T09:46:40.681Z,24.60
2023-04-17T09:49:30.329Z,22.80
2023-04-17T09:51:57.849Z,20.97
2023-04-17T09:54:25.187Z,25.47
2023-04-17T09:56:55.958Z,21.77
2023-04-17T09:59:24.905Z,23.47
2023-04-17T10:01:54.323Z,19.97
2023-04-17T10:04:21.895Z,18.30
2023-04-17T10:06:49.820Z,21.43
2023-04-17T10:09:16.584Z,20.07
2023-04-17T10:11:45.085Z,22.57
2023-04-17T10:14:16.097Z,19.50
2023-04-17T10:16:43.754Z,20.43
2023-04-17T10:19:31.046Z,21.17
2023-04-17T10:22:15.710Z,18.00
2023-04-17T10:24:43.258Z,18.10
2023-04-17T10:27:32.814Z,19.43
2023-04-17T10:30:01.727Z,22.07
2023-04-17T10:32:29.255Z,23.10
2023-04-17T10:35:04.955Z,19.73
2023-04-17T10:38:04.791Z,22.87
2023-04-17T10:40:33.719Z,22.47
2023-04-17T10:43:04.766Z,19.97
2023-04-17T10:46:06.179Z,21.07
2023-04-17T10:48:42.904Z,24.63
2023-04-17T10:51:21.665Z,19.60
2023-04-17T10:53:49.943Z,18.50
2023-04-17T10:56:23.920Z,17.10
2023-04-17T10:58:57.765Z,20.57
2023-04-17T11:01:46.012Z,22.07
2023-04-17T11:04:19.615Z,20.53
2023-04-17T11:06:47.611Z,17.63
2023-04-17T11:09:15.211Z,17.90
2023-04-17T11:11:45.024Z,19.70
2023-04-17T11:14:21.249Z,19.33
2023-04-17T11:16:49.388Z,17.73
2023-04-17T11:19:21.505Z,19.50
2023-04-17T11:21:50.280Z,20.47
2023-04-17T11:24:37.285Z,20.13
2023-04-17T11:27:05.223Z,21.73
2023-04-17T11:29:31.795Z,17.10
2023-04-17T11:32:00.702Z,18.17
2023-04-17T11:34:27.596Z,18.63
2023-04-17T11:36:56.722Z,14.87
2023-04-17T11:39:25.031Z,15.20
2023-04-17T11:41:52.579Z,18.07
2023-04-17T11:44:22.752Z,18.03
2023-04-17T11:46:53.434Z,14.20
2023-04-17T11:49:30.596Z,14.77
2023-04-17T11:51:59.838Z,16.60
2023-04-17T11:54:27.938Z,19.10
2023-04-17T11:57:02.320Z,14.17
2023-04-17T11:59:34.293Z,16.33
2023-04-17T12:02:02.133Z,15.17
2023-04-17T12:04:31.093Z,14.13
2023-04-17T12:06:59.672Z,13.83
2023-04-17T12:09:31.573Z,12.37
2023-04-17T12:11:59.120Z,12.30
2023-04-17T12:14:26.498Z,11.67
2023-04-17T12:16:53.669Z,12.67
2023-04-17T12:19:20.310Z,12.97
2023-04-17T12:21:49.832Z,14.73
2023-04-17T12:24:19.690Z,12.50
2023-04-17T12:26:47.497Z,14.07
2023-04-17T12:29:15.211Z,13.60
2023-04-17T12:31:41.912Z,11.80
2023-04-17T12:34:08.614Z,13.73
2023-04-17T12:36:35.488Z,10.20
2023-04-17T12:39:02.626Z,12.30
2023-04-17T12:41:30.175Z,11.57
2023-04-17T12:44:00.114Z,11.53
2023-04-17T12:46:26.979Z,12.37
2023-04-17T12:48:58.543Z,11.43
2023-04-17T12:51:28.104Z,12.00
2023-04-17T12:53:55.597Z,13.57
2023-04-17T12:56:22.486Z,11.17
2023-04-17T12:58:49.054Z,18.10
2023-04-17T13:01:16.220Z,15.03
2023-04-17T13:03:43.202Z,12.23
2023-04-17T13:06:10.318Z,15.20
2023-04-17T13:08:36.941Z,12.83
2023-04-17T13:11:06.549Z,12.10
2023-04-17T13:13:33.157Z,11.73
2023-04-17T13:16:00.136Z,14.87
2023-04-17T13:18:26.740Z,14.00
2023-04-17T13:20:53.381Z,15.37
2023-04-17T13:23:20.600Z,13.60
2023-04-17T13:25:48.478Z,14.83
2023-04-17T13:28:15.161Z,13.93
2023-04-17T13:30:41.817Z,12.17
2023-04-17T13:33:08.377Z,14.13
2023-04-17T13:35:35.159Z,13.20
2023-04-17T13:38:03.024Z,13.97
2023-04-17T13:40:30.397Z,11.67
2023-04-17T13:42:57.076Z,11.93
2023-04-17T13:45:23.825Z,14.30
2023-04-17T13:47:50.485Z,10.67
2023-04-17T13:50:17.149Z,11.47
2023-04-17T13:52:43.673Z,13.13
2023-04-17T13:55:14.415Z,12.00
2023-04-17T13:57:41.035Z,12.63
2023-04-17T14:00:08.299Z,14.40
2023-04-17T14:02:35.226Z,10.70
2023-04-17T14:05:02.358Z,10.53
2023-04-17T14:07:30.006Z,9.53
2023-04-17T14:09:56.706Z,8.00
2023-04-17T14:12:23.716Z,8.20
2023-04-17T14:14:50.244Z,12.90
2023-04-17T14:17:16.870Z,9.90
2023-04-17T14:19:43.327Z,9.90
2023-04-17T14:22:10.447Z,7.73
2023-04-17T14:24:37.069Z,9.13
2023-04-17T14:27:03.955Z,8.10
2023-04-17T14:29:30.840Z,9.90
2023-04-17T14:31:58.072Z,6.60
2023-04-17T14:34:24.909Z,9.13
2023-04-17T14:36:51.449Z,6.60
2023-04-17T14:39:19.640Z,8.23
2023-04-17T14:41:46.328Z,11.30
2023-04-17T14:44:13.244Z,7.17
2023-04-17T14:46:40.492Z,12.37
2023-04-17T14:49:07.294Z,12.27
2023-04-17T14:51:33.840Z,10.13
2023-04-17T14:54:00.702Z,9.73
2023-04-17T14:56:27.373Z,8.57
2023-04-17T14:58:53.910Z,10.00
2023-04-17T15:01:20.805Z,11.67
2023-04-17T15:03:48.891Z,10.70
2023-04-17T15:06:16.368Z,9.07
2023-04-17T15:08:43.136Z,10.60
2023-04-17T15:11:10.100Z,10.77
2023-04-17T15:13:36.805Z,12.02
2023-04-17T15:16:03.700Z,11.00
2023-04-17T15:18:30.720Z,10.60
2023-04-17T15:20:57.398Z,12.57
2023-04-17T15:23:26.446Z,10.60
2023-04-17T15:25:57.693Z,10.43
2023-04-17T15:28:25.242Z,10.80
2023-04-17T15:30:51.804Z,12.90
2023-04-17T15:33:18.435Z,9.10
2023-04-17T15:35:45.181Z,11.17
2023-04-17T15:38:11.969Z,9.77
2023-04-17T15:40:38.732Z,12.23
2023-04-17T15:43:05.297Z,11.20
2023-04-17T15:45:31.987Z,9.07
2023-04-17T15:47:58.911Z,11.13
2023-04-17T15:50:25.472Z,9.50
2023-04-17T15:52:52.074Z,15.30
2023-04-17T15:55:18.831Z,9.87
2023-04-17T15:57:45.595Z,10.13
2023-04-17T16:00:12.836Z,11.40
2023-04-17T16:02:39.738Z,9.10
2023-04-17T16:05:06.845Z,15.47
2023-04-17T16:07:33.339Z,10.80
2023-04-17T16:10:00.573Z,11.60
2023-04-17T16:12:28.385Z,10.10
2023-04-17T16:14:54.934Z,9.30
2023-04-17T16:17:21.893Z,11.00
2023-04-17T16:19:50.467Z,11.63
2023-04-17T16:22:18.449Z,12.00
2023-04-17T16:24:44.942Z,11.47
2023-04-17T16:27:11.891Z,9.83
2023-04-17T16:29:38.400Z,13.27
2023-04-17T16:32:05.005Z,10.87
2023-04-17T16:34:31.849Z,8.40
2023-04-17T16:36:58.373Z,11.37
2023-04-17T16:39:25.000Z,10.53
2023-04-17T16:41:52.909Z,10.63
2023-04-17T16:44:19.641Z,10.63
2023-04-17T16:47:05.538Z,11.70
2023-04-17T16:49:32.811Z,10.43
2023-04-17T16:51:59.746Z,11.17
2023-04-17T16:54:26.267Z,11.27
2023-04-17T16:56:52.980Z,11.10
2023-04-17T16:59:19.701Z,15.23
2023-04-17T17:01:47.276Z,10.57
2023-04-17T17:04:13.926Z,9.77
2023-04-17T17:06:40.553Z,9.87
2023-04-17T17:09:07.174Z,9.90
2023-04-17T17:11:33.966Z,10.47
2023-04-17T17:14:01.017Z,13.10
2023-04-17T17:16:27.539Z,10.63
2023-04-17T17:18:54.394Z,10.40
2023-04-17T17:21:21.317Z,9.03
2023-04-17T17:23:49.191Z,8.73
2023-04-17T17:26:17.521Z,9.00
2023-04-17T17:28:51.046Z,9.83
2023-04-17T17:31:18.375Z,11.50
2023-04-17T17:33:50.016Z,8.70
2023-04-17T17:36:17.244Z,11.70
2023-04-17T17:38:44.259Z,10.73
2023-04-17T17:41:11.704Z,8.70
2023-04-17T17:43:38.296Z,12.13
2023-04-17T17:46:05.282Z,12.53
2023-04-17T17:48:31.987Z,10.13
2023-04-17T17:50:58.740Z,13.47
2023-04-17T17:53:26.979Z,12.30
2023-04-17T17:55:55.658Z,9.80
2023-04-17T17:58:22.869Z,12.43
2023-04-17T18:00:50.460Z,11.03
2023-04-17T18:03:17.471Z,12.03
2023-04-17T18:05:46.519Z,12.10
2023-04-17T18:08:13.682Z,13.13
2023-04-17T18:10:40.411Z,14.33
2023-04-17T18:13:07.131Z,9.67
2023-04-17T18:15:34.082Z,10.47
2023-04-17T18:18:00.794Z,10.17
2023-04-17T18:20:27.552Z,11.47
2023-04-17T18:22:54.240Z,10.90
2023-04-17T18:25:21.169Z,8.97
2023-04-17T18:27:47.907Z,12.73
2023-04-17T18:30:15.131Z,13.93
2023-04-17T18:32:41.650Z,9.80
2023-04-17T18:35:09.288Z,14.77
2023-04-17T18:37:36.507Z,10.57
2023-04-17T18:40:03.294Z,13.83
2023-04-17T18:42:30.023Z,15.97
2023-04-17T18:44:56.574Z,17.67
2023-04-17T18:47:23.137Z,13.90
2023-04-17T18:49:52.399Z,10.43
2023-04-17T18:52:19.393Z,12.93
2023-04-17T18:54:45.971Z,11.77
2023-04-17T18:57:12.426Z,11.13
2023-04-17T18:59:40.450Z,10.60
2023-04-17T19:02:07.971Z,13.47
2023-04-17T19:04:34.633Z,12.17
2023-04-17T19:07:02.705Z,13.97
2023-04-17T19:09:29.336Z,12.50
2023-04-17T19:11:57.520Z,16.07
2023-04-17T19:14:24.645Z,17.57
2023-04-17T19:16:51.286Z,12.67
2023-04-17T19:19:17.939Z,13.60
2023-04-17T19:21:44.471Z,10.53
2023-04-17T19:24:11.395Z,13.80
2023-04-17T19:26:38.141Z,16.20
2023-04-17T19:29:05.105Z,16.77
2023-04-17T19:31:32.953Z,12.57
2023-04-17T19:34:00.493Z,13.90
2023-04-17T19:36:28.120Z,14.27
2023-04-17T19:38:55.748Z,13.50
2023-04-17T19:41:22.396Z,17.57
2023-04-17T19:43:50.820Z,15.30
2023-04-17T19:46:18.173Z,17.73
2023-04-17T19:48:46.017Z,17.93
2023-04-17T19:51:13.427Z,18.97
2023-04-17T19:53:41.332Z,16.87
2023-04-17T19:56:10.573Z,13.87
2023-04-17T19:58:37.782Z,16.17
2023-04-17T20:01:04.612Z,14.87
2023-04-17T20:03:32.434Z,16.53
2023-04-17T20:05:59.842Z,17.50
2023-04-17T20:08:26.480Z,20.70
2023-04-17T20:10:53.025Z,18.30
2023-04-17T20:13:19.719Z,17.17
2023-04-17T20:15:46.438Z,20.57
2023-04-17T20:18:13.375Z,21.70
2023-04-17T20:20:40.152Z,17.57
2023-04-17T20:23:06.680Z,15.80
2023-04-17T20:25:33.169Z,17.23
2023-04-17T20:28:02.768Z,18.87
2023-04-17T20:30:29.841Z,18.23
2023-04-17T20:32:56.848Z,18.67
2023-04-17T20:35:26.455Z,19.90
2023-04-17T20:37:53.177Z,18.80
2023-04-17T20:40:20.021Z,22.03
2023-04-17T20:42:47.497Z,21.53
2023-04-17T20:45:14.374Z,18.53
2023-04-17T20:47:55.960Z,19.03
2023-04-17T20:50:24.227Z,20.90
2023-04-17T20:52:51.163Z,20.37
2023-04-17T20:55:20.865Z,19.33
2023-04-17T20:57:47.829Z,22.03
2023-04-17T21:00:14.603Z,21.07
2023-04-17T21:02:41.621Z,20.80
2023-04-17T21:05:10.486Z,19.60
2023-04-17T21:07:37.088Z,19.97
2023-04-17T21:10:03.966Z,22.17
2023-04-17T21:12:32.898Z,21.10
2023-04-17T21:14:59.751Z,20.63
2023-04-17T21:17:26.488Z,20.70
2023-04-17T21:19:55.724Z,26.80
2023-04-17T21:22:22.622Z,22.40
2023-04-17T21:24:49.290Z,23.70
2023-04-17T21:27:15.935Z,26.00
2023-04-17T21:29:42.742Z,21.23
2023-04-17T21:32:10.540Z,22.40
2023-04-17T21:34:37.183Z,29.53
2023-04-17T21:37:05.058Z,23.90
2023-04-17T21:39:33.296Z,22.90
2023-04-17T21:42:00.286Z,24.40
2023-04-17T21:44:26.794Z,23.80
2023-04-17T21:46:53.349Z,23.67
2023-04-17T21:49:20.645Z,22.87
2023-04-17T21:51:47.206Z,21.43
2023-04-17T21:54:14.134Z,24.43
2023-04-17T21:56:41.189Z,24.23
2023-04-17T21:59:07.876Z,25.90
2023-04-17T22:01:34.501Z,24.73
2023-04-17T22:04:01.725Z,26.40
2023-04-17T22:06:28.259Z,21.53
2023-04-17T22:08:54.764Z,23.57
2023-04-17T22:11:21.326Z,25.80
2023-04-17T22:13:47.796Z,25.53
2023-04-17T22:16:14.386Z,28.40
2023-04-17T22:18:40.907Z,25.23
2023-04-17T22:21:07.564Z,31.07
2023-04-17T22:23:34.041Z,29.90
2023-04-17T22:26:00.772Z,28.53
2023-04-17T22:28:31.251Z,31.93
2023-04-17T22:30:58.918Z,31.50
2023-04-17T22:33:26.126Z,27.60
2023-04-17T22:35:52.963Z,27.37
2023-04-17T22:38:20.912Z,26.93
2023-04-17T22:40:47.946Z,31.03
2023-04-17T22:43:14.642Z,29.17
2023-04-17T22:45:41.258Z,32.90
2023-04-17T22:48:07.790Z,36.87
2023-04-17T22:50:34.421Z,34.30
2023-04-17T22:53:00.871Z,39.60
2023-04-17T22:55:27.663Z,39.63
2023-04-17T22:57:54.352Z,41.07
2023-04-17T23:00:21.096Z,39.90
2023-04-17T23:02:47.686Z,44.20
2023-04-17T23:05:14.611Z,42.00
2023-04-17T23:07:41.261Z,39.83
2023-04-17T23:10:08.103Z,45.43
2023-04-17T23:12:34.709Z,49.47
2023-04-17T23:15:01.326Z,54.60
2023-04-17T23:17:27.854Z,50.37
2023-04-17T23:19:54.569Z,53.03
2023-04-17T23:22:21.046Z,48.27
2023-04-17T23:24:47.496Z,46.33
2023-04-17T23:27:13.983Z,53.70
2023-04-17T23:29:40.436Z,47.20
2023-04-17T23:32:07.435Z,48.73
2023-04-17T23:34:34.080Z,46.47
2023-04-17T23:37:02.586Z,55.33
2023-04-17T23:39:29.323Z,50.13
2023-04-17T23:41:55.850Z,50.10
2023-04-17T23:44:22.383Z,52.10
2023-04-17T23:46:48.887Z,48.53
2023-04-17T23:49:15.374Z,55.70
2023-04-17T23:51:41.837Z,52.63
2023-04-17T23:54:08.301Z,55.17
2023-04-17T23:56:34.831Z,48.03
2023-04-17T23:59:01.410Z,47.57
